Map

Track Data

SID SEASON NUMBER BASIN SUBBASIN NAME ISO_TIME NATURE LAT LON WMO_WIND WMO_PRES WMO_AGENCY TRACK_TYPE DIST2LAND LANDFALL IFLAG USA_AGENCY USA_ATCF_ID USA_LAT USA_LON USA_RECORD USA_STATUS USA_WIND USA_PRES USA_SSHS USA_R34_NE USA_R34_SE USA_R34_SW USA_R34_NW USA_R50_NE USA_R50_SE USA_R50_SW USA_R50_NW USA_R64_NE USA_R64_SE USA_R64_SW USA_R64_NW USA_POCI USA_ROCI USA_RMW USA_EYE TOKYO_LAT TOKYO_LON TOKYO_GRADE TOKYO_WIND TOKYO_PRES TOKYO_R50_DIR TOKYO_R50_LONG TOKYO_R50_SHORT TOKYO_R30_DIR TOKYO_R30_LONG TOKYO_R30_SHORT TOKYO_LAND CMA_LAT CMA_LON CMA_CAT CMA_WIND CMA_PRES HKO_LAT HKO_LON HKO_CAT HKO_WIND HKO_PRES NEWDELHI_LAT NEWDELHI_LON NEWDELHI_GRADE NEWDELHI_WIND NEWDELHI_PRES NEWDELHI_CI NEWDELHI_DP NEWDELHI_POCI REUNION_LAT REUNION_LON REUNION_TYPE REUNION_WIND REUNION_PRES REUNION_TNUM REUNION_CI REUNION_RMW REUNION_R34_NE REUNION_R34_SE REUNION_R34_SW REUNION_R34_NW REUNION_R50_NE REUNION_R50_SE REUNION_R50_SW REUNION_R50_NW REUNION_R64_NE REUNION_R64_SE REUNION_R64_SW REUNION_R64_NW BOM_LAT BOM_LON BOM_TYPE BOM_WIND BOM_PRES BOM_TNUM BOM_CI BOM_RMW BOM_R34_NE BOM_R34_SE BOM_R34_SW BOM_R34_NW BOM_R50_NE BOM_R50_SE BOM_R50_SW BOM_R50_NW BOM_R64_NE BOM_R64_SE BOM_R64_SW BOM_R64_NW BOM_ROCI BOM_POCI BOM_EYE BOM_POS_METHOD BOM_PRES_METHOD NADI_LAT NADI_LON NADI_CAT NADI_WIND NADI_PRES WELLINGTON_LAT WELLINGTON_LON WELLINGTON_WIND WELLINGTON_PRES DS824_LAT DS824_LON DS824_STAGE DS824_WIND DS824_PRES TD9636_LAT TD9636_LON TD9636_STAGE TD9636_WIND TD9636_PRES TD9635_LAT TD9635_LON TD9635_WIND TD9635_PRES TD9635_ROCI NEUMANN_LAT NEUMANN_LON NEUMANN_CLASS NEUMANN_WIND NEUMANN_PRES MLC_LAT MLC_LON MLC_CLASS MLC_WIND MLC_PRES USA_GUST BOM_GUST BOM_GUST_PER REUNION_GUST REUNION_GUST_PER USA_SEAHGT USA_SEARAD_NE USA_SEARAD_SE USA_SEARAD_SW USA_SEARAD_NW STORM_SPEED STORM_DIR
1926353S14121 1927 62 SI WA NOT_NAMED 1926-12-18 23:00:00 NR -14.0000 121.300 main 328 313 __________O___ -1 -14.0000 121.300 7 6 144
1926353S14121 1927 62 SI WA NOT_NAMED 1926-12-19 00:00:00 NR -14.0850 121.360 main 313 309 __________P___ -1 -14.0850 121.360 7 6 190
1926353S14121 1927 62 SI WA NOT_NAMED 1926-12-19 01:00:00 NR -14.2025 121.265 bom main 309 290 ______O___P___ -1 -14.3000 120.800 -14.1700 121.420 7 7 0
1926353S14121 1927 62 SI WA NOT_NAMED 1926-12-19 03:00:00 NR -14.4141 121.342 main 290 251 ______P___P___ -1 -14.5636 120.951 -14.3394 121.537 7 7 160
1926353S14121 1927 62 SI WA NOT_NAMED 1926-12-19 06:00:00 NR -14.7469 121.474 main 251 209 ______P___P___ -1 -14.9546 121.176 -14.5912 121.698 7 7 158
1926353S14121 1927 62 SI WA NOT_NAMED 1926-12-19 09:00:00 NR -15.0865 121.615 main 209 185 ______P___P___ -1 -15.3344 121.398 -14.8385 121.832 7 7 156
1926353S14121 1927 62 SI WA NOT_NAMED 1926-12-19 11:00:00 NR -15.2891 121.721 main 185 170 ______P___O___ -1 -15.5782 121.542 -15.0000 121.900 7 7 154
1926353S14121 1927 62 SI WA NOT_NAMED 1926-12-19 12:00:00 NR -15.3881 121.770 main 170 139 ______P___P___ -1 -15.6965 121.613 -15.0796 121.926 7 6 156
1926353S14121 1927 62 SI WA NOT_NAMED 1926-12-19 15:00:00 NR -15.6756 121.898 main 139 115 ______P___P___ -1 -16.0342 121.818 -15.3170 121.978 7 6 158
1926353S14121 1927 62 SI WA NOT_NAMED 1926-12-19 18:00:00 NR -15.9502 122.006 main 108 85 ______P___P___ -1 -16.3410 122.012 -15.5594 122.000 7 6 160
1926353S14121 1927 62 SI WA NOT_NAMED 1926-12-19 21:00:00 NR -16.2133 122.096 main 85 70 ______P___P___ -1 -16.6104 122.190 -15.8162 122.002 7 5 162
1926353S14121 1927 62 SI WA NOT_NAMED 1926-12-19 23:00:00 NR -16.3830 122.150 main 70 55 ______P___O___ -1 -16.7659 122.300 -16.0000 122.000 7 5 163
1926353S14121 1927 62 SI WA NOT_NAMED 1926-12-20 00:00:00 NR -16.4676 122.174 main 55 55 ______P___P___ -1 -16.8358 122.351 -16.0995 121.997 7 5 167
1926353S14121 1927 62 SI WA NOT_NAMED 1926-12-20 01:00:00 NR -16.5511 122.196 bom main 46 39 ______O___P___ -1 -16.9000 122.400 -16.2021 121.993 7 5 166
1926353S14121 1927 62 SI WA NOT_NAMED 1926-12-20 03:00:00 NR -16.7136 122.236 main 39 21 ______P___P___ -1 -17.0122 122.491 -16.4150 121.981 7 5 168
1926353S14121 1927 62 SI WA NOT_NAMED 1926-12-20 06:00:00 NR -16.9492 122.286 main 21 0 ______P___P___ -1 -17.1519 122.605 -16.7464 121.967 7 5 169
1926353S14121 1927 62 SI WA NOT_NAMED 1926-12-20 09:00:00 NR -17.1798 122.332 main 0 0 ______P___P___ -1 -17.2785 122.689 -17.0811 121.974 7 5 169
1926353S14121 1927 62 SI WA NOT_NAMED 1926-12-20 09:30:00 NR -17.2182 122.339 bom main 0 0 ______O___P___ -1 -17.3000 122.700 -17.1364 121.979 7 5 166
1926353S14121 1927 62 SI WA NOT_NAMED 1926-12-20 11:00:00 NR -17.3427 122.365 main 0 0 ______P___O___ -1 -17.3854 122.730 -17.3000 122.000 7 5 168
1926353S14121 1927 62 SI WA NOT_NAMED 1926-12-20 12:00:00 NR -17.4340 122.386 main 0 0 ______P___P___ -1 -17.4449 122.745 -17.4231 122.027 7 6 166
1926353S14121 1927 62 SI WA NOT_NAMED 1926-12-20 15:00:00 NR -17.7115 122.454 main 0 0 ______P___P___ -1 -17.6281 122.770 -17.7949 122.137 7 6 167
1926353S14121 1927 62 SI WA NOT_NAMED 1926-12-20 18:00:00 NR -17.9698 122.521 main 0 0 ______P___P___ -1 -17.8055 122.768 -18.1342 122.274 7 5 166
1926353S14121 1927 62 SI WA NOT_NAMED 1926-12-20 21:00:00 NR -18.1769 122.581 main 0 0 ______P___P___ -1 -17.9598 122.747 -18.3940 122.415 7 4 163
1926353S14121 1927 62 SI WA NOT_NAMED 1926-12-20 23:00:00 NR -18.2707 122.613 main 0 0 ______P___O___ -1 -18.0414 122.725 -18.5000 122.500 7 3 158
1926353S14121 1927 62 SI WA NOT_NAMED 1926-12-21 00:00:00 NR -18.2989 122.624 main 0 0 ______P___P___ -1 -18.0739 122.713 -18.5240 122.536 7 2 0
1926353S14121 1927 62 SI WA NOT_NAMED 1926-12-21 01:00:00 NR -18.3163 122.635 bom main 0 0 ______O___P___ -1 -18.1000 122.700 -18.5325 122.570 7 1 100
1926353S14121 1927 62 SI WA NOT_NAMED 1926-12-21 03:00:00 NR -18.3056 122.666 main 0 0 ______P___P___ -1 -18.1019 122.700 -18.5093 122.633 7 1 35
1926353S14121 1927 62 SI WA NOT_NAMED 1926-12-21 06:00:00 NR -18.2248 122.704 main 0 0 ______P___P___ -1 -18.0532 122.696 -18.3964 122.713 7 2 13
1926353S14121 1927 62 SI WA NOT_NAMED 1926-12-21 09:00:00 NR -18.0913 122.729 main 0 0 ______P___P___ -1 -17.9568 122.685 -18.2258 122.773 7 3 9
1926353S14121 1927 62 SI WA NOT_NAMED 1926-12-21 11:00:00 NR -17.9870 122.735 main 0 0 ______P___O___ -1 -17.8739 122.670 -18.1000 122.800 7 3 3
1926353S14121 1927 62 SI WA NOT_NAMED 1926-12-21 12:00:00 NR -17.9332 122.735 main 0 0 ______P___P___ -1 -17.8287 122.661 -18.0378 122.810 7 3 355
1926353S14121 1927 62 SI WA NOT_NAMED 1926-12-21 15:00:00 NR -17.7709 122.722 main 0 0 ______P___P___ -1 -17.6851 122.620 -17.8568 122.824 7 3 350
1926353S14121 1927 62 SI WA NOT_NAMED 1926-12-21 18:00:00 NR -17.6022 122.671 main 0 0 ______P___P___ -1 -17.5419 122.557 -17.6825 122.823 7 4 338
1926353S14121 1927 62 SI WA NOT_NAMED 1926-12-21 21:00:00 NR -17.4477 122.582 main 0 0 ______P___P___ -1 -17.4153 122.468 -17.5124 122.811 7 4 322
1926353S14121 1927 62 SI WA NOT_NAMED 1926-12-21 23:00:00 NR -17.3585 122.473 main 0 0 ______P___O___ -1 -17.3481 122.392 -17.4000 122.800 7 5 300
1926353S14121 1927 62 SI WA NOT_NAMED 1926-12-22 00:00:00 NR -17.3213 122.348 main 0 0 ______P_______ -1 -17.3213 122.348 7 5 290
1926353S14121 1927 62 SI WA NOT_NAMED 1926-12-22 01:00:00 NR -17.3000 122.300 bom main 0 0 ______O_______ -1 -17.3000 122.300 7 3 288
1926353S14121 1927 62 SI WA NOT_NAMED 1926-12-22 03:00:00 NR -17.2748 122.192 main 0 0 ______P_______ -1 -17.2748 122.192 7 3 275
1926353S14121 1927 62 SI WA NOT_NAMED 1926-12-22 06:00:00 NR -17.2774 122.003 main 21 21 ______P_______ -1 -17.2774 122.003 7 4 263
1926353S14121 1927 62 SI WA NOT_NAMED 1926-12-22 09:00:00 NR -17.3226 121.784 main 42 42 ______P_______ -1 -17.3226 121.784 7 5 254
1926353S14121 1927 62 SI WA NOT_NAMED 1926-12-22 12:00:00 NR -17.4034 121.539 main 67 67 ______P_______ -1 -17.4034 121.539 5 249
1926353S14121 1927 62 SI WA NOT_NAMED 1926-12-22 15:00:00 NR -17.5131 121.274 main 85 85 ______P_______ -1 -17.5131 121.274 6 245
1926353S14121 1927 62 SI WA NOT_NAMED 1926-12-22 18:00:00 NR -17.6449 120.993 main 116 116 ______P_______ -1 -17.6449 120.993 6 243
1926353S14121 1927 62 SI WA NOT_NAMED 1926-12-22 21:00:00 NR -17.7919 120.700 main 138 138 ______P_______ -1 -17.7919 120.700 6 242
1926353S14121 1927 62 SI WA NOT_NAMED 1926-12-23 00:00:00 NR -17.9474 120.401 main 158 152 ______P_______ -1 -17.9474 120.401 7 241
1926353S14121 1927 62 SI WA NOT_NAMED 1926-12-23 01:00:00 NR -18.0000 120.300 bom main 162 ______O_______ -1 -18.0000 120.300 7 242

About IBTrACS Database

This database is a web-friendly format of International Best Track Archive for Climate Stewardship (IBTrACS), a global best track data archive curated by NOAA dating back to 1842.

Updated: 2021-10-08